sensor_id;sensor_type;location;lat;lon;timestamp;pressure;altitude;pressure_sealevel;temperature;humidity
55687;BME280;41911;52.362;4.978;2022-12-07T00:01:28;101875.04;;;5.61;47.32
55687;BME280;41911;52.362;4.978;2022-12-07T00:01:59;101873.58;;;5.95;47.14
55687;BME280;41911;52.362;4.978;2022-12-07T00:02:31;101873.95;;;5.99;47.53
55687;BME280;41911;52.362;4.978;2022-12-07T00:03:01;101875.07;;;5.43;47.48
55687;BME280;41911;52.362;4.978;2022-12-07T00:03:33;101872.75;;;5.82;47.40
55687;BME280;41911;52.362;4.978;2022-12-07T00:04:05;101871.43;;;5.74;47.35
55687;BME280;41911;52.362;4.978;2022-12-07T00:04:36;101872.12;;;5.98;47.22
55687;BME280;41911;52.362;4.978;2022-12-07T00:05:07;101871.57;;;6.13;47.02
55687;BME280;41911;52.362;4.978;2022-12-07T00:05:38;101870.28;;;5.52;47.48
55687;BME280;41911;52.362;4.978;2022-12-07T00:06:11;101869.04;;;5.63;47.41
55687;BME280;41911;52.362;4.978;2022-12-07T00:06:44;101870.81;;;5.54;47.47
55687;BME280;41911;52.362;4.978;2022-12-07T00:07:15;101874.54;;;5.89;47.43
55687;BME280;41911;52.362;4.978;2022-12-07T00:07:46;101868.94;;;5.53;47.88
55687;BME280;41911;52.362;4.978;2022-12-07T00:08:17;101870.77;;;5.35;47.79
55687;BME280;41911;52.362;4.978;2022-12-07T00:08:48;101870.47;;;5.73;47.86
55687;BME280;41911;52.362;4.978;2022-12-07T00:09:19;101869.86;;;6.11;47.64
55687;BME280;41911;52.362;4.978;2022-12-07T00:09:50;101871.88;;;5.70;47.69
55687;BME280;41911;52.362;4.978;2022-12-07T00:10:21;101869.13;;;5.31;48.24
55687;BME280;41911;52.362;4.978;2022-12-07T00:10:52;101870.36;;;5.72;48.16
55687;BME280;41911;52.362;4.978;2022-12-07T00:11:24;101866.84;;;5.50;47.96
55687;BME280;41911;52.362;4.978;2022-12-07T00:11:55;101864.57;;;5.52;47.99
55687;BME280;41911;52.362;4.978;2022-12-07T00:12:31;101865.15;;;5.56;47.89
55687;BME280;41911;52.362;4.978;2022-12-07T00:13:02;101864.63;;;5.78;47.91
55687;BME280;41911;52.362;4.978;2022-12-07T00:13:34;101865.47;;;5.74;47.90
55687;BME280;41911;52.362;4.978;2022-12-07T00:14:09;101863.10;;;5.98;47.90
55687;BME280;41911;52.362;4.978;2022-12-07T00:14:41;101863.10;;;5.53;48.16
55687;BME280;41911;52.362;4.978;2022-12-07T00:15:13;101862.72;;;5.81;47.88
55687;BME280;41911;52.362;4.978;2022-12-07T00:15:44;101860.79;;;5.70;48.02
55687;BME280;41911;52.362;4.978;2022-12-07T00:16:17;101859.92;;;5.74;48.20
55687;BME280;41911;52.362;4.978;2022-12-07T00:16:50;101859.48;;;5.50;47.75
55687;BME280;41911;52.362;4.978;2022-12-07T00:17:21;101856.20;;;5.88;48.01
55687;BME280;41911;52.362;4.978;2022-12-07T00:17:52;101857.75;;;5.78;48.01
55687;BME280;41911;52.362;4.978;2022-12-07T00:18:23;101857.78;;;5.68;48.31
55687;BME280;41911;52.362;4.978;2022-12-07T00:18:55;101855.45;;;5.42;48.70
55687;BME280;41911;52.362;4.978;2022-12-07T00:19:26;101855.94;;;5.49;48.50
55687;BME280;41911;52.362;4.978;2022-12-07T00:19:57;101857.10;;;5.89;48.35
55687;BME280;41911;52.362;4.978;2022-12-07T00:20:28;101854.49;;;5.70;48.39
55687;BME280;41911;52.362;4.978;2022-12-07T00:21:00;101852.96;;;5.41;48.12
55687;BME280;41911;52.362;4.978;2022-12-07T00:21:34;101855.09;;;5.87;47.98
55687;BME280;41911;52.362;4.978;2022-12-07T00:22:05;101852.39;;;5.77;47.59
55687;BME280;41911;52.362;4.978;2022-12-07T00:22:36;101854.43;;;5.83;47.97
55687;BME280;41911;52.362;4.978;2022-12-07T00:23:07;101853.03;;;5.88;47.74
55687;BME280;41911;52.362;4.978;2022-12-07T00:23:39;101853.32;;;5.93;47.96
55687;BME280;41911;52.362;4.978;2022-12-07T00:24:11;101851.65;;;5.37;48.46
55687;BME280;41911;52.362;4.978;2022-12-07T00:24:42;101851.64;;;5.32;48.39
55687;BME280;41911;52.362;4.978;2022-12-07T00:25:13;101850.18;;;5.31;48.43
55687;BME280;41911;52.362;4.978;2022-12-07T00:25:44;101852.46;;;5.71;48.52
55687;BME280;41911;52.362;4.978;2022-12-07T00:26:17;101853.27;;;5.85;47.97
55687;BME280;41911;52.362;4.978;2022-12-07T00:26:50;101850.91;;;5.57;47.72
55687;BME280;41911;52.362;4.978;2022-12-07T00:27:21;101848.36;;;5.26;48.29
55687;BME280;41911;52.362;4.978;2022-12-07T00:27:53;101852.78;;;5.46;48.20
55687;BME280;41911;52.362;4.978;2022-12-07T00:28:24;101852.53;;;5.55;48.00
55687;BME280;41911;52.362;4.978;2022-12-07T00:28:57;101851.85;;;5.59;47.95
55687;BME280;41911;52.362;4.978;2022-12-07T00:29:29;101850.86;;;5.69;47.70
55687;BME280;41911;52.362;4.978;2022-12-07T00:29:59;101849.64;;;5.50;47.85
55687;BME280;41911;52.362;4.978;2022-12-07T00:30:30;101848.40;;;5.67;47.73
55687;BME280;41911;52.362;4.978;2022-12-07T00:31:05;101849.52;;;5.70;47.38
55687;BME280;41911;52.362;4.978;2022-12-07T00:31:37;101849.79;;;5.67;47.64
55687;BME280;41911;52.362;4.978;2022-12-07T00:32:08;101850.30;;;5.69;47.34
55687;BME280;41911;52.362;4.978;2022-12-07T00:32:39;101850.02;;;5.70;47.46
55687;BME280;41911;52.362;4.978;2022-12-07T00:33:09;101849.19;;;5.77;47.30
55687;BME280;41911;52.362;4.978;2022-12-07T00:33:41;101849.11;;;5.89;47.37
55687;BME280;41911;52.362;4.978;2022-12-07T00:34:14;101850.76;;;5.76;47.37
55687;BME280;41911;52.362;4.978;2022-12-07T00:34:45;101850.02;;;5.64;47.68
55687;BME280;41911;52.362;4.978;2022-12-07T00:35:16;101854.76;;;5.54;47.89
55687;BME280;41911;52.362;4.978;2022-12-07T00:35:55;101854.01;;;5.51;47.88
55687;BME280;41911;52.362;4.978;2022-12-07T00:36:26;101853.74;;;5.35;48.18
55687;BME280;41911;52.362;4.978;2022-12-07T00:36:57;101851.00;;;5.24;48.43
55687;BME280;41911;52.362;4.978;2022-12-07T00:37:28;101851.24;;;5.22;48.49
55687;BME280;41911;52.362;4.978;2022-12-07T00:37:59;101848.81;;;5.53;48.41
55687;BME280;41911;52.362;4.978;2022-12-07T00:38:31;101849.77;;;5.26;48.85
55687;BME280;41911;52.362;4.978;2022-12-07T00:39:03;101848.91;;;5.26;48.74
55687;BME280;41911;52.362;4.978;2022-12-07T00:39:34;101847.72;;;4.95;49.32
55687;BME280;41911;52.362;4.978;2022-12-07T00:40:07;101850.18;;;4.34;49.80
55687;BME280;41911;52.362;4.978;2022-12-07T00:40:38;101843.54;;;4.86;49.56
55687;BME280;41911;52.362;4.978;2022-12-07T00:41:11;101845.34;;;4.57;49.24
55687;BME280;41911;52.362;4.978;2022-12-07T00:41:42;101842.57;;;5.02;49.21
55687;BME280;41911;52.362;4.978;2022-12-07T00:42:13;101839.43;;;4.92;49.21
55687;BME280;41911;52.362;4.978;2022-12-07T00:42:44;101840.53;;;4.75;49.48
55687;BME280;41911;52.362;4.978;2022-12-07T00:43:15;101840.95;;;5.19;49.33
55687;BME280;41911;52.362;4.978;2022-12-07T00:43:47;101835.70;;;5.42;49.04
55687;BME280;41911;52.362;4.978;2022-12-07T00:44:18;101836.84;;;5.23;48.66
55687;BME280;41911;52.362;4.978;2022-12-07T00:44:49;101834.91;;;4.88;49.03
55687;BME280;41911;52.362;4.978;2022-12-07T00:45:20;101834.46;;;5.08;48.77
55687;BME280;41911;52.362;4.978;2022-12-07T00:45:51;101833.45;;;5.16;48.73
55687;BME280;41911;52.362;4.978;2022-12-07T00:46:23;101833.78;;;5.19;48.71
55687;BME280;41911;52.362;4.978;2022-12-07T00:46:54;101834.84;;;5.43;48.68
55687;BME280;41911;52.362;4.978;2022-12-07T00:47:30;101839.84;;;4.71;49.74
55687;BME280;41911;52.362;4.978;2022-12-07T00:48:03;101836.83;;;4.99;49.20
55687;BME280;41911;52.362;4.978;2022-12-07T00:48:35;101838.56;;;4.86;49.09
55687;BME280;41911;52.362;4.978;2022-12-07T00:49:06;101841.38;;;4.89;49.32
55687;BME280;41911;52.362;4.978;2022-12-07T00:49:37;101844.14;;;5.05;49.39
55687;BME280;41911;52.362;4.978;2022-12-07T00:50:08;101839.97;;;4.83;49.19
55687;BME280;41911;52.362;4.978;2022-12-07T00:50:39;101834.44;;;5.26;48.77
55687;BME280;41911;52.362;4.978;2022-12-07T00:51:11;101836.22;;;4.94;48.82
55687;BME280;41911;52.362;4.978;2022-12-07T00:51:42;101835.91;;;4.96;48.98
55687;BME280;41911;52.362;4.978;2022-12-07T00:52:13;101834.79;;;5.13;49.28
55687;BME280;41911;52.362;4.978;2022-12-07T00:52:44;101836.38;;;5.14;49.50
55687;BME280;41911;52.362;4.978;2022-12-07T00:53:16;101834.30;;;5.27;49.17
55687;BME280;41911;52.362;4.978;2022-12-07T00:53:49;101833.56;;;5.45;49.12
55687;BME280;41911;52.362;4.978;2022-12-07T00:54:20;101831.46;;;5.28;49.29
55687;BME280;41911;52.362;4.978;2022-12-07T00:54:51;101827.26;;;5.37;49.17
55687;BME280;41911;52.362;4.978;2022-12-07T00:55:22;101827.80;;;5.16;48.88
55687;BME280;41911;52.362;4.978;2022-12-07T00:55:54;101828.01;;;4.96;48.51
55687;BME280;41911;52.362;4.978;2022-12-07T00:56:26;101826.37;;;5.30;48.61
55687;BME280;41911;52.362;4.978;2022-12-07T00:56:58;101824.47;;;5.50;48.64
55687;BME280;41911;52.362;4.978;2022-12-07T00:57:30;101825.52;;;5.31;48.58
55687;BME280;41911;52.362;4.978;2022-12-07T00:58:02;101827.66;;;5.03;48.66
55687;BME280;41911;52.362;4.978;2022-12-07T00:58:33;101828.14;;;5.12;48.42
55687;BME280;41911;52.362;4.978;2022-12-07T00:59:04;101827.33;;;5.46;48.27
55687;BME280;41911;52.362;4.978;2022-12-07T00:59:35;101827.63;;;5.30;48.07
55687;BME280;41911;52.362;4.978;2022-12-07T01:00:07;101828.87;;;5.38;47.98
55687;BME280;41911;52.362;4.978;2022-12-07T01:00:41;101827.70;;;5.39;47.65
55687;BME280;41911;52.362;4.978;2022-12-07T01:01:12;101827.54;;;5.67;47.28
55687;BME280;41911;52.362;4.978;2022-12-07T01:01:43;101827.62;;;5.68;47.22
55687;BME280;41911;52.362;4.978;2022-12-07T01:02:14;101828.00;;;5.88;47.17
55687;BME280;41911;52.362;4.978;2022-12-07T01:02:45;101828.01;;;5.78;47.03
55687;BME280;41911;52.362;4.978;2022-12-07T01:03:16;101831.04;;;5.66;47.01
55687;BME280;41911;52.362;4.978;2022-12-07T01:03:47;101832.18;;;5.53;46.98
55687;BME280;41911;52.362;4.978;2022-12-07T01:04:18;101830.69;;;5.52;46.96
55687;BME280;41911;52.362;4.978;2022-12-07T01:04:49;101830.46;;;5.86;46.87
55687;BME280;41911;52.362;4.978;2022-12-07T01:05:20;101833.49;;;5.62;46.96
55687;BME280;41911;52.362;4.978;2022-12-07T01:05:53;101830.52;;;5.42;47.04
55687;BME280;41911;52.362;4.978;2022-12-07T01:06:25;101832.42;;;5.69;46.87
55687;BME280;41911;52.362;4.978;2022-12-07T01:06:56;101830.73;;;5.85;47.17
55687;BME280;41911;52.362;4.978;2022-12-07T01:07:27;101829.42;;;5.45;47.41
55687;BME280;41911;52.362;4.978;2022-12-07T01:07:58;101829.90;;;5.59;47.08
55687;BME280;41911;52.362;4.978;2022-12-07T01:08:29;101830.81;;;5.49;47.19
55687;BME280;41911;52.362;4.978;2022-12-07T01:09:01;101829.28;;;5.24;47.46
55687;BME280;41911;52.362;4.978;2022-12-07T01:09:32;101830.83;;;5.45;47.60
55687;BME280;41911;52.362;4.978;2022-12-07T01:10:04;101834.10;;;5.62;47.41
55687;BME280;41911;52.362;4.978;2022-12-07T01:10:35;101836.17;;;5.40;47.35
55687;BME280;41911;52.362;4.978;2022-12-07T01:11:07;101834.33;;;5.20;47.62
55687;BME280;41911;52.362;4.978;2022-12-07T01:11:40;101838.39;;;5.57;47.73
55687;BME280;41911;52.362;4.978;2022-12-07T01:12:11;101841.87;;;5.25;47.73
55687;BME280;41911;52.362;4.978;2022-12-07T01:12:42;101843.78;;;5.35;47.72
55687;BME280;41911;52.362;4.978;2022-12-07T01:13:13;101844.32;;;5.21;47.72
55687;BME280;41911;52.362;4.978;2022-12-07T01:13:44;101848.18;;;5.42;47.55
55687;BME280;41911;52.362;4.978;2022-12-07T01:14:15;101853.23;;;5.78;47.70
55687;BME280;41911;52.362;4.978;2022-12-07T01:14:46;101853.12;;;5.35;47.92
55687;BME280;41911;52.362;4.978;2022-12-07T01:15:19;101854.90;;;5.15;48.14
55687;BME280;41911;52.362;4.978;2022-12-07T01:15:50;101856.49;;;4.41;49.69
55687;BME280;41911;52.362;4.978;2022-12-07T01:16:22;101866.66;;;5.28;49.33
55687;BME280;41911;52.362;4.978;2022-12-07T01:16:54;101859.14;;;4.77;50.15
55687;BME280;41911;52.362;4.978;2022-12-07T01:17:25;101866.20;;;4.60;50.06
55687;BME280;41911;52.362;4.978;2022-12-07T01:17:56;101866.33;;;4.25;50.58
55687;BME280;41911;52.362;4.978;2022-12-07T01:18:28;101865.59;;;3.38;52.75
55687;BME280;41911;52.362;4.978;2022-12-07T01:19:01;101863.77;;;4.24;52.15
55687;BME280;41911;52.362;4.978;2022-12-07T01:19:32;101861.99;;;4.34;51.83
55687;BME280;41911;52.362;4.978;2022-12-07T01:20:04;101863.43;;;4.67;51.48
55687;BME280;41911;52.362;4.978;2022-12-07T01:20:36;101862.68;;;4.67;51.50
55687;BME280;41911;52.362;4.978;2022-12-07T01:21:10;101859.73;;;4.75;51.51
55687;BME280;41911;52.362;4.978;2022-12-07T01:21:42;101862.18;;;4.67;51.57
55687;BME280;41911;52.362;4.978;2022-12-07T01:22:13;101858.28;;;4.93;51.43
55687;BME280;41911;52.362;4.978;2022-12-07T01:22:44;101859.84;;;4.75;51.72
55687;BME280;41911;52.362;4.978;2022-12-07T01:23:15;101861.25;;;4.48;52.06
55687;BME280;41911;52.362;4.978;2022-12-07T01:23:47;101854.93;;;4.78;51.73
55687;BME280;41911;52.362;4.978;2022-12-07T01:24:18;101858.70;;;4.97;51.50
55687;BME280;41911;52.362;4.978;2022-12-07T01:24:51;101856.02;;;4.86;51.60
55687;BME280;41911;52.362;4.978;2022-12-07T01:25:22;101856.26;;;4.82;51.61
55687;BME280;41911;52.362;4.978;2022-12-07T01:25:55;101856.74;;;4.93;51.45
55687;BME280;41911;52.362;4.978;2022-12-07T01:26:27;101855.16;;;5.18;51.03
55687;BME280;41911;52.362;4.978;2022-12-07T01:26:58;101852.06;;;5.39;50.92
55687;BME280;41911;52.362;4.978;2022-12-07T01:27:29;101853.55;;;5.44;50.78
55687;BME280;41911;52.362;4.978;2022-12-07T01:28:00;101853.84;;;5.41;50.66
55687;BME280;41911;52.362;4.978;2022-12-07T01:28:31;101852.22;;;5.27;50.51
55687;BME280;41911;52.362;4.978;2022-12-07T01:29:02;101850.54;;;5.46;50.62
55687;BME280;41911;52.362;4.978;2022-12-07T01:29:33;101847.19;;;5.71;50.21
55687;BME280;41911;52.362;4.978;2022-12-07T01:30:06;101846.51;;;5.54;50.35
55687;BME280;41911;52.362;4.978;2022-12-07T01:30:37;101844.17;;;5.41;50.54
55687;BME280;41911;52.362;4.978;2022-12-07T01:31:10;101842.01;;;5.16;50.30
55687;BME280;41911;52.362;4.978;2022-12-07T01:31:41;101841.88;;;5.28;50.45
55687;BME280;41911;52.362;4.978;2022-12-07T01:32:14;101840.77;;;5.79;49.99
55687;BME280;41911;52.362;4.978;2022-12-07T01:32:45;101843.74;;;5.54;50.03
55687;BME280;41911;52.362;4.978;2022-12-07T01:33:16;101844.05;;;5.37;49.95
55687;BME280;41911;52.362;4.978;2022-12-07T01:33:48;101844.83;;;5.74;49.82
55687;BME280;41911;52.362;4.978;2022-12-07T01:34:20;101845.01;;;5.47;49.79
55687;BME280;41911;52.362;4.978;2022-12-07T01:34:51;101845.34;;;5.21;50.14
55687;BME280;41911;52.362;4.978;2022-12-07T01:35:22;101844.15;;;5.08;49.99
55687;BME280;41911;52.362;4.978;2022-12-07T01:35:54;101844.35;;;5.06;50.11
55687;BME280;41911;52.362;4.978;2022-12-07T01:36:27;101843.53;;;5.18;50.09
55687;BME280;41911;52.362;4.978;2022-12-07T01:36:59;101844.11;;;5.33;49.59
55687;BME280;41911;52.362;4.978;2022-12-07T01:37:34;101842.07;;;5.24;49.87
55687;BME280;41911;52.362;4.978;2022-12-07T01:38:05;101842.37;;;5.44;49.97
55687;BME280;41911;52.362;4.978;2022-12-07T01:38:36;101843.79;;;5.35;49.81
55687;BME280;41911;52.362;4.978;2022-12-07T01:39:09;101843.65;;;5.68;49.73
55687;BME280;41911;52.362;4.978;2022-12-07T01:39:40;101842.75;;;5.78;49.57
55687;BME280;41911;52.362;4.978;2022-12-07T01:40:12;101841.07;;;5.36;49.75
55687;BME280;41911;52.362;4.978;2022-12-07T01:40:43;101840.86;;;5.62;49.81
55687;BME280;41911;52.362;4.978;2022-12-07T01:41:14;101839.85;;;5.21;49.79
55687;BME280;41911;52.362;4.978;2022-12-07T01:41:45;101838.90;;;5.24;49.74
55687;BME280;41911;52.362;4.978;2022-12-07T01:42:18;101841.98;;;5.39;49.68
55687;BME280;41911;52.362;4.978;2022-12-07T01:42:49;101840.20;;;5.54;49.44
55687;BME280;41911;52.362;4.978;2022-12-07T01:43:20;101841.38;;;5.37;49.49
55687;BME280;41911;52.362;4.978;2022-12-07T01:44:12;101840.97;;;5.38;49.49
55687;BME280;41911;52.362;4.978;2022-12-07T01:45:52;101842.91;;;5.41;49.53
55687;BME280;41911;52.362;4.978;2022-12-07T01:46:24;101843.52;;;5.47;49.26
55687;BME280;41911;52.362;4.978;2022-12-07T01:46:56;101840.09;;;5.69;48.87
55687;BME280;41911;52.362;4.978;2022-12-07T01:47:28;101841.31;;;5.71;48.86
55687;BME280;41911;52.362;4.978;2022-12-07T01:47:59;101840.24;;;6.06;48.81
55687;BME280;41911;52.362;4.978;2022-12-07T01:48:32;101839.93;;;5.98;48.76
55687;BME280;41911;52.362;4.978;2022-12-07T01:49:07;101839.90;;;5.71;48.73
55687;BME280;41911;52.362;4.978;2022-12-07T01:49:41;101840.38;;;5.75;48.82
55687;BME280;41911;52.362;4.978;2022-12-07T01:50:13;101840.55;;;5.75;48.69
55687;BME280;41911;52.362;4.978;2022-12-07T01:50:47;101842.31;;;5.83;48.56
55687;BME280;41911;52.362;4.978;2022-12-07T01:51:21;101842.43;;;5.89;48.49
55687;BME280;41911;52.362;4.978;2022-12-07T01:51:56;101842.62;;;5.83;48.46
55687;BME280;41911;52.362;4.978;2022-12-07T01:52:31;101843.71;;;5.82;48.46
55687;BME280;41911;52.362;4.978;2022-12-07T01:53:06;101842.77;;;5.48;48.35
55687;BME280;41911;52.362;4.978;2022-12-07T01:53:43;101842.07;;;5.77;48.48
55687;BME280;41911;52.362;4.978;2022-12-07T01:54:16;101843.18;;;5.59;48.66
55687;BME280;41911;52.362;4.978;2022-12-07T01:54:51;101842.73;;;5.60;48.65
55687;BME280;41911;52.362;4.978;2022-12-07T01:55:24;101843.36;;;5.62;48.36
55687;BME280;41911;52.362;4.978;2022-12-07T01:55:56;101839.78;;;5.43;48.24
55687;BME280;41911;52.362;4.978;2022-12-07T01:56:29;101840.85;;;5.45;48.75
55687;BME280;41911;52.362;4.978;2022-12-07T01:57:03;101839.08;;;5.16;49.15
55687;BME280;41911;52.362;4.978;2022-12-07T01:57:39;101835.84;;;5.24;49.05
55687;BME280;41911;52.362;4.978;2022-12-07T01:58:11;101833.79;;;5.19;49.07
55687;BME280;41911;52.362;4.978;2022-12-07T01:58:43;101833.79;;;5.36;49.04
55687;BME280;41911;52.362;4.978;2022-12-07T01:59:15;101834.59;;;5.26;49.08
55687;BME280;41911;52.362;4.978;2022-12-07T01:59:49;101832.51;;;5.45;49.12
55687;BME280;41911;52.362;4.978;2022-12-07T02:00:23;101830.51;;;5.18;49.07
55687;BME280;41911;52.362;4.978;2022-12-07T02:00:54;101829.04;;;5.16;49.06
55687;BME280;41911;52.362;4.978;2022-12-07T02:01:26;101830.60;;;5.03;48.82
55687;BME280;41911;52.362;4.978;2022-12-07T02:01:57;101830.04;;;5.32;48.81
55687;BME280;41911;52.362;4.978;2022-12-07T02:02:33;101829.52;;;5.27;48.71
55687;BME280;41911;52.362;4.978;2022-12-07T02:03:07;101828.44;;;5.31;48.68
55687;BME280;41911;52.362;4.978;2022-12-07T02:03:41;101828.52;;;5.36;48.63
55687;BME280;41911;52.362;4.978;2022-12-07T02:04:12;101830.10;;;5.40;48.61
55687;BME280;41911;52.362;4.978;2022-12-07T02:04:44;101827.98;;;5.54;48.35
55687;BME280;41911;52.362;4.978;2022-12-07T02:05:16;101828.33;;;5.57;48.30
55687;BME280;41911;52.362;4.978;2022-12-07T02:05:48;101829.25;;;5.65;48.23
55687;BME280;41911;52.362;4.978;2022-12-07T02:06:24;101830.36;;;5.49;48.24
55687;BME280;41911;52.362;4.978;2022-12-07T02:06:55;101829.90;;;5.67;48.20
55687;BME280;41911;52.362;4.978;2022-12-07T02:07:29;101827.76;;;5.65;48.02
55687;BME280;41911;52.362;4.978;2022-12-07T02:08:00;101825.72;;;5.63;48.15
55687;BME280;41911;52.362;4.978;2022-12-07T02:08:33;101828.38;;;5.54;48.13
55687;BME280;41911;52.362;4.978;2022-12-07T02:09:04;101828.48;;;5.57;48.04
55687;BME280;41911;52.362;4.978;2022-12-07T02:09:35;101828.52;;;5.44;48.26
55687;BME280;41911;52.362;4.978;2022-12-07T02:10:15;101826.19;;;5.34;48.46
55687;BME280;41911;52.362;4.978;2022-12-07T02:10:46;101823.89;;;5.22;48.60
55687;BME280;41911;52.362;4.978;2022-12-07T02:11:17;101824.14;;;5.16;48.48
55687;BME280;41911;52.362;4.978;2022-12-07T02:11:49;101825.00;;;5.45;48.48
55687;BME280;41911;52.362;4.978;2022-12-07T02:12:22;101823.78;;;5.04;48.61
55687;BME280;41911;52.362;4.978;2022-12-07T02:12:55;101821.98;;;5.34;48.18
55687;BME280;41911;52.362;4.978;2022-12-07T02:13:30;101822.18;;;5.46;48.02
55687;BME280;41911;52.362;4.978;2022-12-07T02:14:02;101820.88;;;5.51;47.67
55687;BME280;41911;52.362;4.978;2022-12-07T02:14:33;101820.20;;;5.52;47.73
55687;BME280;41911;52.362;4.978;2022-12-07T02:15:05;101820.57;;;5.53;47.81
55687;BME280;41911;52.362;4.978;2022-12-07T02:15:47;101819.83;;;5.54;47.87
55687;BME280;41911;52.362;4.978;2022-12-07T02:16:31;101825.60;;;5.50;48.11
55687;BME280;41911;52.362;4.978;2022-12-07T02:17:14;101826.19;;;5.44;48.13
55687;BME280;41911;52.362;4.978;2022-12-07T02:17:54;101828.06;;;5.79;48.19
55687;BME280;41911;52.362;4.978;2022-12-07T02:18:43;101831.34;;;5.40;48.40
55687;BME280;41911;52.362;4.978;2022-12-07T02:20:08;101829.15;;;5.19;48.75
55687;BME280;41911;52.362;4.978;2022-12-07T02:20:47;101836.97;;;4.53;49.92
55687;BME280;41911;52.362;4.978;2022-12-07T02:21:30;101838.65;;;4.46;50.30
55687;BME280;41911;52.362;4.978;2022-12-07T02:22:21;101840.31;;;4.56;50.93
55687;BME280;41911;52.362;4.978;2022-12-07T02:25:55;101824.27;;;5.35;50.55
55687;BME280;41911;52.362;4.978;2022-12-07T02:27:12;101824.29;;;4.59;50.88
55687;BME280;41911;52.362;4.978;2022-12-07T02:27:54;101822.02;;;5.09;51.10
55687;BME280;41911;52.362;4.978;2022-12-07T02:28:33;101821.06;;;5.11;51.13
55687;BME280;41911;52.362;4.978;2022-12-07T02:29:14;101816.12;;;5.25;50.89
55687;BME280;41911;52.362;4.978;2022-12-07T02:29:55;101815.81;;;5.41;50.61
55687;BME280;41911;52.362;4.978;2022-12-07T02:30:33;101816.40;;;5.44;50.11
55687;BME280;41911;52.362;4.978;2022-12-07T02:31:10;101815.46;;;5.26;50.21
55687;BME280;41911;52.362;4.978;2022-12-07T02:31:48;101811.96;;;4.97;50.50
55687;BME280;41911;52.362;4.978;2022-12-07T02:32:24;101812.18;;;4.83;50.70
55687;BME280;41911;52.362;4.978;2022-12-07T02:33:00;101810.33;;;4.79;50.53
55687;BME280;41911;52.362;4.978;2022-12-07T02:33:37;101808.56;;;5.03;50.46
55687;BME280;41911;52.362;4.978;2022-12-07T02:34:21;101810.69;;;4.80;50.44
55687;BME280;41911;52.362;4.978;2022-12-07T02:34:58;101810.44;;;5.21;49.99
55687;BME280;41911;52.362;4.978;2022-12-07T02:35:37;101809.44;;;5.00;49.77
55687;BME280;41911;52.362;4.978;2022-12-07T02:36:13;101808.91;;;4.90;50.00
55687;BME280;41911;52.362;4.978;2022-12-07T02:36:52;101809.70;;;4.99;49.96
55687;BME280;41911;52.362;4.978;2022-12-07T02:37:36;101807.57;;;4.74;50.13
55687;BME280;41911;52.362;4.978;2022-12-07T02:38:15;101806.56;;;4.92;49.71
55687;BME280;41911;52.362;4.978;2022-12-07T02:38:52;101805.37;;;5.49;49.34
55687;BME280;41911;52.362;4.978;2022-12-07T02:39:31;101803.10;;;5.47;49.22
55687;BME280;41911;52.362;4.978;2022-12-07T02:40:10;101804.96;;;5.55;49.33
55687;BME280;41911;52.362;4.978;2022-12-07T02:40:47;101802.55;;;5.13;49.04
55687;BME280;41911;52.362;4.978;2022-12-07T02:41:25;101804.41;;;5.42;48.97
55687;BME280;41911;52.362;4.978;2022-12-07T02:42:04;101806.93;;;5.53;48.85
55687;BME280;41911;52.362;4.978;2022-12-07T02:42:45;101805.99;;;5.25;48.57
55687;BME280;41911;52.362;4.978;2022-12-07T02:43:21;101803.72;;;5.43;48.44
55687;BME280;41911;52.362;4.978;2022-12-07T02:43:57;101804.07;;;5.40;48.40
55687;BME280;41911;52.362;4.978;2022-12-07T02:44:33;101802.76;;;5.48;48.26
55687;BME280;41911;52.362;4.978;2022-12-07T02:45:06;101802.07;;;5.52;48.15
55687;BME280;41911;52.362;4.978;2022-12-07T02:45:39;101802.82;;;5.43;48.14
55687;BME280;41911;52.362;4.978;2022-12-07T02:46:15;101800.91;;;5.40;48.14
55687;BME280;41911;52.362;4.978;2022-12-07T02:46:54;101802.84;;;5.38;48.13
55687;BME280;41911;52.362;4.978;2022-12-07T02:47:34;101801.39;;;5.41;48.03
55687;BME280;41911;52.362;4.978;2022-12-07T02:48:07;101801.72;;;5.14;48.18
55687;BME280;41911;52.362;4.978;2022-12-07T02:49:45;101798.76;;;5.39;48.32
55687;BME280;41911;52.362;4.978;2022-12-07T02:50:18;101797.03;;;4.87;48.29
55687;BME280;41911;52.362;4.978;2022-12-07T02:50:51;101796.92;;;5.00;48.27
55687;BME280;41911;52.362;4.978;2022-12-07T02:51:22;101796.52;;;5.21;48.36
55687;BME280;41911;52.362;4.978;2022-12-07T02:51:53;101797.27;;;4.97;48.47
55687;BME280;41911;52.362;4.978;2022-12-07T02:52:24;101796.88;;;5.16;48.57
55687;BME280;41911;52.362;4.978;2022-12-07T02:52:56;101796.74;;;5.26;48.54
55687;BME280;41911;52.362;4.978;2022-12-07T02:53:36;101796.91;;;5.28;48.61
55687;BME280;41911;52.362;4.978;2022-12-07T02:54:12;101798.00;;;5.44;48.58
55687;BME280;41911;52.362;4.978;2022-12-07T02:54:43;101797.47;;;4.61;48.55
55687;BME280;41911;52.362;4.978;2022-12-07T02:55:17;101798.22;;;5.21;48.36
55687;BME280;41911;52.362;4.978;2022-12-07T02:55:50;101797.48;;;5.61;48.30
55687;BME280;41911;52.362;4.978;2022-12-07T02:56:30;101797.10;;;5.27;48.35
55687;BME280;41911;52.362;4.978;2022-12-07T02:57:17;101797.50;;;5.41;48.33
55687;BME280;41911;52.362;4.978;2022-12-07T02:58:06;101798.83;;;5.09;48.66
55687;BME280;41911;52.362;4.978;2022-12-07T02:58:50;101799.36;;;5.22;48.56
55687;BME280;41911;52.362;4.978;2022-12-07T02:59:37;101798.14;;;5.07;48.67
55687;BME280;41911;52.362;4.978;2022-12-07T03:00:16;101798.13;;;4.68;49.07
55687;BME280;41911;52.362;4.978;2022-12-07T03:00:58;101799.60;;;4.77;49.07
55687;BME280;41911;52.362;4.978;2022-12-07T03:01:39;101799.03;;;4.84;48.99
55687;BME280;41911;52.362;4.978;2022-12-07T03:02:20;101797.68;;;4.86;49.01
55687;BME280;41911;52.362;4.978;2022-12-07T03:03:00;101796.39;;;4.83;49.14
55687;BME280;41911;52.362;4.978;2022-12-07T03:03:34;101801.87;;;4.85;49.10
55687;BME280;41911;52.362;4.978;2022-12-07T03:04:20;101800.97;;;5.53;49.27
55687;BME280;41911;52.362;4.978;2022-12-07T03:05:05;101801.12;;;5.31;49.39